createdAt,value
2023-04-07T00:00:23.466Z,7.82
2023-04-07T00:01:23.437Z,7.80
2023-04-07T00:02:23.553Z,7.77
2023-04-07T00:03:23.589Z,7.77
2023-04-07T00:04:28.885Z,7.80
2023-04-07T00:05:23.400Z,7.85
2023-04-07T00:06:23.381Z,7.79
2023-04-07T00:07:23.384Z,7.79
2023-04-07T00:08:23.357Z,7.82
2023-04-07T00:09:23.355Z,7.80
2023-04-07T00:10:23.388Z,7.83
2023-04-07T00:11:23.329Z,7.79
2023-04-07T00:12:23.322Z,7.80
2023-04-07T00:13:23.307Z,7.82
2023-04-07T00:14:23.308Z,7.83
2023-04-07T00:15:28.320Z,7.79
2023-04-07T00:16:23.362Z,7.80
2023-04-07T00:17:23.280Z,7.80
2023-04-07T00:18:23.246Z,7.68
2023-04-07T00:19:23.263Z,7.71
2023-04-07T00:20:23.268Z,7.77
2023-04-07T00:21:23.216Z,7.85
2023-04-07T00:22:23.224Z,7.74
2023-04-07T00:23:23.196Z,7.82
2023-04-07T00:24:33.302Z,7.86
2023-04-07T00:25:23.196Z,7.80
2023-04-07T00:26:28.187Z,7.79
2023-04-07T00:27:23.148Z,7.75
2023-04-07T00:28:23.170Z,7.68
2023-04-07T00:29:23.121Z,7.71
2023-04-07T00:30:23.121Z,7.74
2023-04-07T00:31:23.117Z,7.69
2023-04-07T00:32:23.127Z,7.71
2023-04-07T00:33:23.094Z,7.72
2023-04-07T00:34:23.100Z,7.69
2023-04-07T00:35:23.059Z,7.69
2023-04-07T00:36:23.056Z,7.75
2023-04-07T00:37:28.059Z,7.72
2023-04-07T00:38:23.023Z,7.74
2023-04-07T00:39:23.032Z,7.71
2023-04-07T00:40:23.046Z,7.75
2023-04-07T00:41:22.982Z,7.82
2023-04-07T00:42:22.980Z,7.75
2023-04-07T00:43:22.962Z,7.74
2023-04-07T00:44:22.959Z,7.75
2023-04-07T00:45:22.954Z,7.74
2023-04-07T00:46:22.962Z,7.75
2023-04-07T00:47:22.949Z,7.72
2023-04-07T00:48:27.927Z,7.79
2023-04-07T00:49:22.894Z,7.71
2023-04-07T00:50:22.896Z,7.75
2023-04-07T00:51:22.878Z,7.74
2023-04-07T00:52:22.899Z,7.80
2023-04-07T00:53:22.850Z,7.77
2023-04-07T00:54:22.843Z,7.75
2023-04-07T00:55:22.853Z,7.69
2023-04-07T00:56:22.816Z,7.75
2023-04-07T00:57:22.812Z,7.80
2023-04-07T00:58:22.818Z,7.83
2023-04-07T00:59:27.804Z,7.71
2023-04-07T01:00:22.786Z,7.68
2023-04-07T01:01:22.807Z,7.69
2023-04-07T01:02:22.881Z,7.69
2023-04-07T01:03:23.029Z,7.69
2023-04-07T01:04:22.866Z,7.74
2023-04-07T01:05:22.710Z,7.74
2023-04-07T01:06:22.733Z,7.79
2023-04-07T01:07:22.699Z,7.80
2023-04-07T01:08:22.710Z,7.83
2023-04-07T01:09:22.672Z,7.83
2023-04-07T01:10:27.746Z,7.79
2023-04-07T01:11:22.644Z,7.77
2023-04-07T01:12:22.636Z,7.67
2023-04-07T01:13:22.618Z,7.80
2023-04-07T01:14:22.608Z,7.77
2023-04-07T01:15:22.624Z,7.79
2023-04-07T01:16:22.640Z,7.79
2023-04-07T01:17:22.665Z,7.80
2023-04-07T01:18:22.566Z,7.77
2023-04-07T01:19:22.551Z,7.79
2023-04-07T01:20:22.547Z,7.79
2023-04-07T01:21:27.561Z,7.74
2023-04-07T01:22:22.550Z,7.82
2023-04-07T01:23:22.511Z,7.80
2023-04-07T01:24:22.605Z,7.86
2023-04-07T01:25:22.502Z,7.83
2023-04-07T01:26:22.486Z,7.86
2023-04-07T01:27:22.461Z,7.75
2023-04-07T01:28:22.451Z,7.79
2023-04-07T01:29:22.484Z,7.77
2023-04-07T01:30:22.431Z,7.85
2023-04-07T01:31:22.489Z,7.80
2023-04-07T01:32:27.455Z,7.77
2023-04-07T01:33:22.396Z,7.80
2023-04-07T01:34:22.383Z,7.71
2023-04-07T01:35:22.413Z,7.77
2023-04-07T01:36:22.370Z,7.67
2023-04-07T01:37:22.366Z,7.80
2023-04-07T01:38:22.339Z,7.80
2023-04-07T01:39:22.329Z,7.80
2023-04-07T01:40:22.340Z,7.74
2023-04-07T01:41:22.356Z,7.83
2023-04-07T01:42:22.306Z,7.86
2023-04-07T01:43:27.303Z,7.79
2023-04-07T01:44:22.302Z,7.79
2023-04-07T01:45:22.259Z,7.79
2023-04-07T01:46:22.257Z,7.80
2023-04-07T01:47:22.442Z,7.77
2023-04-07T01:48:22.232Z,7.79
2023-04-07T01:49:22.221Z,7.90
2023-04-07T01:50:22.213Z,7.79
2023-04-07T01:51:22.205Z,7.83
2023-04-07T01:52:22.185Z,7.80
2023-04-07T01:53:22.189Z,7.75
2023-04-07T01:54:27.184Z,7.86
2023-04-07T01:55:22.153Z,7.74
2023-04-07T01:56:22.179Z,7.79
2023-04-07T01:57:22.133Z,7.77
2023-04-07T01:58:22.118Z,7.80
2023-04-07T01:59:22.134Z,7.86
2023-04-07T02:00:22.098Z,7.87
2023-04-07T02:01:22.116Z,7.83
2023-04-07T02:02:22.167Z,7.82
2023-04-07T02:03:22.277Z,7.86
2023-04-07T02:04:22.066Z,7.80
2023-04-07T02:05:27.123Z,7.83
2023-04-07T02:06:22.035Z,7.90
2023-04-07T02:07:22.026Z,7.82
2023-04-07T02:08:22.007Z,7.86
2023-04-07T02:09:21.999Z,7.87
2023-04-07T02:10:21.980Z,7.85
2023-04-07T02:11:22.000Z,7.86
2023-04-07T02:12:21.978Z,7.77
2023-04-07T02:13:21.967Z,7.83
2023-04-07T02:14:21.932Z,7.75
2023-04-07T02:15:21.920Z,7.89
2023-04-07T02:16:26.965Z,7.80
2023-04-07T02:17:21.918Z,7.77
2023-04-07T02:18:21.897Z,7.86
2023-04-07T02:19:21.874Z,7.86
2023-04-07T02:20:21.883Z,7.83
2023-04-07T02:21:21.862Z,7.86
2023-04-07T02:22:21.852Z,7.87
2023-04-07T02:23:21.850Z,7.82
2023-04-07T02:24:21.848Z,7.85
2023-04-07T02:25:21.817Z,7.87
2023-04-07T02:26:21.820Z,7.90
2023-04-07T02:27:26.824Z,7.85
2023-04-07T02:28:21.780Z,7.83
2023-04-07T02:29:21.794Z,7.85
2023-04-07T02:30:21.749Z,7.77
2023-04-07T02:31:21.761Z,7.83
2023-04-07T02:32:21.757Z,7.90
2023-04-07T02:33:21.716Z,7.85
2023-04-07T02:34:21.704Z,7.85
2023-04-07T02:35:21.733Z,7.85
2023-04-07T02:36:21.707Z,7.86
2023-04-07T02:37:21.686Z,7.82
2023-04-07T02:38:26.682Z,7.82
2023-04-07T02:39:21.648Z,7.83
2023-04-07T02:40:21.638Z,7.83
2023-04-07T02:41:21.647Z,7.89
2023-04-07T02:42:21.624Z,7.75
2023-04-07T02:43:21.628Z,7.85
2023-04-07T02:44:21.620Z,7.98
2023-04-07T02:45:21.581Z,7.86
2023-04-07T02:46:21.615Z,7.83
2023-04-07T02:47:21.630Z,7.87
2023-04-07T02:48:21.540Z,7.82
2023-04-07T02:49:26.569Z,7.85
2023-04-07T02:50:21.523Z,7.85
2023-04-07T02:51:21.509Z,7.80
2023-04-07T02:52:21.504Z,7.93
2023-04-07T02:53:21.508Z,7.86
2023-04-07T02:54:21.471Z,7.79
2023-04-07T02:55:21.480Z,7.79
2023-04-07T02:56:21.448Z,7.74
2023-04-07T02:57:21.450Z,7.85
2023-04-07T02:58:21.425Z,7.77
2023-04-07T02:59:21.450Z,7.85
2023-04-07T03:00:26.433Z,7.82
2023-04-07T03:01:21.414Z,7.83
2023-04-07T03:02:21.466Z,7.92
2023-04-07T03:03:21.663Z,7.85
2023-04-07T03:04:21.569Z,7.87
2023-04-07T03:05:21.374Z,7.85
2023-04-07T03:06:21.345Z,7.85
2023-04-07T03:07:21.341Z,7.90
2023-04-07T03:08:21.310Z,7.85
2023-04-07T03:09:21.300Z,7.80
2023-04-07T03:10:21.289Z,7.82
2023-04-07T03:11:26.339Z,7.82
2023-04-07T03:12:21.274Z,7.86
2023-04-07T03:13:21.257Z,7.90
2023-04-07T03:14:21.240Z,7.85
2023-04-07T03:15:21.257Z,7.85
2023-04-07T03:16:21.261Z,7.83
2023-04-07T03:17:21.276Z,7.77
2023-04-07T03:18:21.195Z,7.83
2023-04-07T03:19:21.187Z,7.80
2023-04-07T03:20:21.185Z,7.86
2023-04-07T03:21:21.161Z,7.82
2023-04-07T03:22:26.199Z,7.85
2023-04-07T03:23:21.179Z,7.80
2023-04-07T03:24:21.135Z,7.80
2023-04-07T03:25:21.124Z,7.83
2023-04-07T03:26:21.106Z,7.74
2023-04-07T03:27:21.104Z,7.85
2023-04-07T03:28:21.083Z,7.86
2023-04-07T03:29:21.146Z,7.86
2023-04-07T03:30:21.061Z,7.85
2023-04-07T03:31:21.104Z,7.82
2023-04-07T03:32:21.050Z,7.82
2023-04-07T03:33:26.053Z,7.82
2023-04-07T03:34:21.028Z,7.82
2023-04-07T03:35:21.072Z,7.72
2023-04-07T03:36:21.007Z,7.75
2023-04-07T03:37:20.991Z,7.80
2023-04-07T03:38:20.969Z,7.79
2023-04-07T03:39:20.960Z,7.80
2023-04-07T03:40:20.952Z,7.83
2023-04-07T03:41:20.982Z,7.80
2023-04-07T03:42:20.935Z,7.82
2023-04-07T03:43:20.922Z,7.77
2023-04-07T03:44:25.929Z,7.80
2023-04-07T03:45:20.895Z,7.77
2023-04-07T03:46:20.962Z,7.79
2023-04-07T03:47:20.912Z,7.77
2023-04-07T03:48:20.856Z,7.74
2023-04-07T03:49:20.847Z,7.80
2023-04-07T03:50:20.833Z,7.80
2023-04-07T03:51:20.835Z,7.79
2023-04-07T03:52:20.822Z,7.79
2023-04-07T03:53:20.827Z,7.82
2023-04-07T03:54:20.802Z,7.83
2023-04-07T03:55:25.806Z,7.80
2023-04-07T03:56:20.771Z,7.77
2023-04-07T03:57:20.765Z,7.75
2023-04-07T03:58:20.750Z,7.80
2023-04-07T03:59:20.765Z,7.80
2023-04-07T04:00:20.781Z,7.83
2023-04-07T04:01:20.713Z,7.79
2023-04-07T04:02:20.817Z,7.85
2023-04-07T04:03:21.004Z,7.82
2023-04-07T04:04:20.765Z,7.82
2023-04-07T04:05:20.778Z,7.74
2023-04-07T04:06:25.688Z,7.75
2023-04-07T04:07:20.675Z,7.83
2023-04-07T04:08:20.701Z,7.77
2023-04-07T04:09:20.739Z,7.77
2023-04-07T04:10:20.619Z,7.83
2023-04-07T04:11:20.660Z,7.85
2023-04-07T04:12:20.610Z,7.85
2023-04-07T04:13:20.583Z,7.77
2023-04-07T04:14:20.568Z,7.80
2023-04-07T04:15:20.557Z,7.85
2023-04-07T04:16:20.615Z,7.80
2023-04-07T04:17:25.620Z,7.85
2023-04-07T04:18:20.525Z,7.83
2023-04-07T04:19:20.548Z,7.85
2023-04-07T04:20:20.505Z,7.85
2023-04-07T04:21:20.491Z,7.86
2023-04-07T04:22:20.513Z,7.86
2023-04-07T04:23:20.493Z,7.82
2023-04-07T04:24:20.454Z,7.80
2023-04-07T04:25:20.446Z,7.87
2023-04-07T04:26:20.431Z,7.85
2023-04-07T04:27:20.442Z,7.83
2023-04-07T04:28:25.436Z,7.85
2023-04-07T04:29:20.447Z,7.86
2023-04-07T04:30:20.386Z,7.92
2023-04-07T04:31:20.407Z,7.82
2023-04-07T04:32:20.510Z,7.90
2023-04-07T04:33:20.357Z,7.85
2023-04-07T04:34:20.344Z,7.85
2023-04-07T04:35:20.366Z,7.92
2023-04-07T04:36:20.355Z,7.82
2023-04-07T04:37:20.325Z,7.85
2023-04-07T04:38:20.298Z,7.89
2023-04-07T04:39:25.339Z,7.89
2023-04-07T04:40:20.286Z,7.92
2023-04-07T04:41:20.303Z,7.97
2023-04-07T04:42:20.259Z,7.89
2023-04-07T04:43:20.245Z,7.85
2023-04-07T04:44:20.231Z,8.00
2023-04-07T04:45:20.225Z,7.89
2023-04-07T04:46:20.206Z,7.98
2023-04-07T04:47:20.380Z,7.90
2023-04-07T04:48:20.192Z,7.89
2023-04-07T04:49:20.180Z,7.92
2023-04-07T04:50:25.214Z,7.86
2023-04-07T04:51:20.152Z,8.02
2023-04-07T04:52:20.146Z,7.92
2023-04-07T04:53:20.169Z,8.00
2023-04-07T04:54:20.118Z,8.04
2023-04-07T04:55:20.104Z,8.02
2023-04-07T04:56:20.097Z,8.05
2023-04-07T04:57:20.090Z,7.98
2023-04-07T04:58:20.072Z,8.05
2023-04-07T04:59:20.091Z,8.02
2023-04-07T05:00:20.054Z,8.05
2023-04-07T05:01:25.067Z,7.98
2023-04-07T05:02:20.112Z,8.08
2023-04-07T05:03:20.301Z,7.98
2023-04-07T05:04:20.281Z,8.08
2023-04-07T05:05:20.108Z,8.01
2023-04-07T05:06:20.009Z,8.01
2023-04-07T05:07:19.981Z,8.04
2023-04-07T05:08:19.959Z,8.02
2023-04-07T05:09:19.955Z,7.98
2023-04-07T05:10:19.945Z,8.02
2023-04-07T05:11:19.935Z,7.95
2023-04-07T05:12:24.947Z,8.01
2023-04-07T05:13:19.917Z,8.02
2023-04-07T05:14:19.890Z,7.95
2023-04-07T05:15:19.877Z,7.95
2023-04-07T05:16:19.900Z,8.07
2023-04-07T05:17:19.923Z,8.02
2023-04-07T05:18:19.849Z,8.00
2023-04-07T05:19:19.833Z,8.11
2023-04-07T05:20:19.836Z,7.97
2023-04-07T05:21:19.811Z,8.07
2023-04-07T05:22:19.945Z,8.10
2023-04-07T05:23:24.845Z,8.07
2023-04-07T05:24:19.805Z,8.11
2023-04-07T05:25:19.783Z,8.07
2023-04-07T05:26:19.757Z,8.10
2023-04-07T05:27:19.752Z,8.10
2023-04-07T05:28:19.736Z,8.20
2023-04-07T05:29:19.741Z,8.11
2023-04-07T05:30:19.721Z,8.12
2023-04-07T05:31:19.723Z,8.05
2023-04-07T05:32:19.747Z,8.05
2023-04-07T05:33:19.676Z,8.08
2023-04-07T05:34:24.689Z,8.11
2023-04-07T05:35:19.697Z,8.08
2023-04-07T05:36:19.646Z,8.10
2023-04-07T05:37:19.636Z,8.12
2023-04-07T05:38:19.770Z,8.19
2023-04-07T05:39:19.614Z,8.19
2023-04-07T05:40:19.597Z,8.11
2023-04-07T05:41:19.612Z,8.10
2023-04-07T05:42:19.575Z,8.22
2023-04-07T05:43:19.580Z,8.16
2023-04-07T05:44:19.550Z,8.26
2023-04-07T05:45:24.583Z,8.25
2023-04-07T05:46:19.550Z,8.22
2023-04-07T05:47:19.547Z,8.23
2023-04-07T05:48:19.525Z,8.28
2023-04-07T05:49:20.610Z,8.19
2023-04-07T05:50:19.484Z,8.25
2023-04-07T05:51:19.472Z,8.33
2023-04-07T05:52:19.469Z,8.30
2023-04-07T05:53:19.487Z,8.22
2023-04-07T05:54:19.455Z,8.22
2023-04-07T05:55:19.441Z,8.26
2023-04-07T05:56:24.469Z,8.22
2023-04-07T05:57:19.463Z,8.34
2023-04-07T05:58:19.400Z,8.29
2023-04-07T05:59:19.403Z,8.22
2023-04-07T06:00:19.372Z,8.22
2023-04-07T06:01:19.363Z,8.23
2023-04-07T06:02:19.533Z,8.28
2023-04-07T06:03:19.435Z,8.19
2023-04-07T06:04:19.325Z,8.28
2023-04-07T06:05:19.384Z,8.20
2023-04-07T06:06:19.301Z,8.22
2023-04-07T06:07:24.309Z,8.23
2023-04-07T06:08:19.286Z,8.34
2023-04-07T06:09:19.272Z,8.30
2023-04-07T06:10:19.295Z,8.38
2023-04-07T06:11:19.307Z,8.40
2023-04-07T06:12:19.237Z,8.38
2023-04-07T06:13:19.240Z,8.37
2023-04-07T06:14:19.215Z,8.36
2023-04-07T06:15:19.201Z,8.52
2023-04-07T06:16:19.753Z,8.52
2023-04-07T06:17:19.244Z,8.58
2023-04-07T06:18:24.193Z,8.53
2023-04-07T06:19:19.151Z,8.53
2023-04-07T06:20:19.140Z,8.66
2023-04-07T06:21:19.132Z,8.59
2023-04-07T06:22:19.120Z,8.63
2023-04-07T06:23:19.130Z,8.71
2023-04-07T06:24:19.095Z,8.77
2023-04-07T06:25:19.114Z,8.65
2023-04-07T06:26:19.123Z,8.70
2023-04-07T06:27:19.066Z,8.68
2023-04-07T06:28:19.078Z,8.76
2023-04-07T06:29:24.133Z,8.74
2023-04-07T06:30:19.031Z,8.81
2023-04-07T06:31:19.183Z,8.68
2023-04-07T06:32:19.018Z,8.70
2023-04-07T06:33:19.015Z,8.68
2023-04-07T06:34:18.988Z,8.73
2023-04-07T06:35:19.045Z,8.65
2023-04-07T06:36:18.959Z,8.73
2023-04-07T06:37:18.982Z,8.71
2023-04-07T06:38:18.950Z,8.66
2023-04-07T06:39:18.930Z,8.70
2023-04-07T06:40:23.932Z,8.76
2023-04-07T06:41:18.928Z,8.81
2023-04-07T06:42:18.912Z,8.92
2023-04-07T06:43:18.895Z,8.91
2023-04-07T06:44:18.872Z,8.98
2023-04-07T06:45:18.861Z,9.01
2023-04-07T06:46:18.964Z,9.11
2023-04-07T06:47:18.849Z,9.17
2023-04-07T06:48:18.853Z,9.23
2023-04-07T06:49:18.812Z,9.21
2023-04-07T06:50:18.800Z,9.24
2023-04-07T06:51:23.809Z,9.20
2023-04-07T06:52:18.776Z,9.20
2023-04-07T06:53:18.826Z,9.18
2023-04-07T06:54:18.760Z,9.20
2023-04-07T06:55:18.751Z,9.29
2023-04-07T06:56:18.773Z,9.31
2023-04-07T06:57:18.723Z,9.28
2023-04-07T06:58:18.741Z,9.35
2023-04-07T06:59:18.720Z,9.29
2023-04-07T07:00:18.899Z,9.32
2023-04-07T07:01:18.709Z,9.35
2023-04-07T07:02:23.813Z,9.42
2023-04-07T07:03:18.912Z,9.51
2023-04-07T07:04:18.753Z,9.50
2023-04-07T07:05:18.644Z,9.61
2023-04-07T07:06:18.624Z,9.65
2023-04-07T07:07:18.610Z,9.75
2023-04-07T07:08:18.607Z,9.78
2023-04-07T07:09:18.584Z,9.79
2023-04-07T07:10:18.575Z,9.91
2023-04-07T07:11:18.580Z,9.81
2023-04-07T07:12:18.561Z,9.76
2023-04-07T07:13:23.591Z,9.66
2023-04-07T07:14:18.539Z,9.81
2023-04-07T07:15:18.558Z,9.94
2023-04-07T07:16:18.534Z,9.87
2023-04-07T07:17:18.524Z,9.86
2023-04-07T07:18:18.505Z,9.86
2023-04-07T07:19:18.473Z,9.97
2023-04-07T07:20:18.464Z,9.99
2023-04-07T07:21:18.476Z,9.99
2023-04-07T07:22:18.440Z,10.08
2023-04-07T07:23:18.460Z,10.09
2023-04-07T07:24:23.435Z,10.14
2023-04-07T07:25:18.414Z,10.08
2023-04-07T07:26:18.400Z,10.23
2023-04-07T07:27:18.379Z,10.26
2023-04-07T07:28:18.413Z,10.23
2023-04-07T07:29:18.404Z,10.18
2023-04-07T07:30:18.354Z,10.33
2023-04-07T07:31:18.875Z,10.41
2023-04-07T07:32:18.334Z,10.38
2023-04-07T07:33:18.328Z,10.53
2023-04-07T07:34:18.304Z,10.53
2023-04-07T07:35:23.380Z,10.55
2023-04-07T07:36:18.338Z,10.44
2023-04-07T07:37:18.266Z,10.42
2023-04-07T07:38:18.266Z,10.41
2023-04-07T07:39:18.250Z,10.53
2023-04-07T07:40:18.238Z,10.45
2023-04-07T07:41:18.248Z,10.59
2023-04-07T07:42:18.210Z,10.63
2023-04-07T07:43:18.209Z,10.81
2023-04-07T07:44:18.188Z,10.81
2023-04-07T07:45:18.195Z,10.96
2023-04-07T07:46:23.232Z,11.15
2023-04-07T07:47:18.202Z,11.27
2023-04-07T07:48:18.154Z,11.39
2023-04-07T07:49:18.130Z,11.60
2023-04-07T07:50:18.133Z,11.64
2023-04-07T07:51:18.105Z,11.61
2023-04-07T07:52:18.102Z,11.72
2023-04-07T07:53:18.119Z,11.86
2023-04-07T07:54:18.073Z,11.85
2023-04-07T07:55:18.059Z,11.64
2023-04-07T07:56:18.055Z,11.73
2023-04-07T07:57:23.060Z,11.90
2023-04-07T07:58:18.043Z,12.24
2023-04-07T07:59:18.058Z,12.35
2023-04-07T08:00:18.021Z,12.46
2023-04-07T08:01:18.020Z,12.53
2023-04-07T08:02:18.083Z,12.77
2023-04-07T08:03:18.105Z,12.97
2023-04-07T08:04:18.276Z,13.07
2023-04-07T08:05:17.989Z,13.08
2023-04-07T08:06:17.962Z,13.20
2023-04-07T08:07:17.925Z,13.32
2023-04-07T08:08:22.949Z,13.63
2023-04-07T08:09:17.901Z,13.78
2023-04-07T08:10:17.914Z,13.99
2023-04-07T08:11:17.952Z,13.73
2023-04-07T08:12:17.867Z,13.57
2023-04-07T08:13:17.891Z,13.81
2023-04-07T08:14:17.847Z,13.73
2023-04-07T08:15:17.888Z,13.96
2023-04-07T08:16:17.904Z,14.09
2023-04-07T08:17:17.832Z,14.14
2023-04-07T08:18:17.836Z,14.27
2023-04-07T08:19:22.805Z,14.50
2023-04-07T08:20:17.790Z,14.27
2023-04-07T08:21:17.768Z,13.75
2023-04-07T08:22:17.763Z,13.52
2023-04-07T08:23:17.770Z,13.63
2023-04-07T08:24:17.744Z,13.79
2023-04-07T08:25:17.751Z,13.84
2023-04-07T08:26:17.718Z,14.09
2023-04-07T08:27:17.697Z,14.14
2023-04-07T08:28:17.705Z,14.17
2023-04-07T08:29:17.673Z,14.46
2023-04-07T08:30:22.749Z,14.58
2023-04-07T08:31:17.682Z,14.65
2023-04-07T08:32:17.641Z,14.28
2023-04-07T08:33:17.660Z,14.03
2023-04-07T08:34:17.622Z,14.00
2023-04-07T08:35:17.603Z,14.20
2023-04-07T08:36:17.594Z,14.21
2023-04-07T08:37:17.602Z,14.28
2023-04-07T08:38:17.582Z,14.51
2023-04-07T08:39:17.563Z,14.57
2023-04-07T08:40:17.574Z,14.89
2023-04-07T08:41:22.566Z,14.83
2023-04-07T08:42:17.526Z,14.86
2023-04-07T08:43:17.546Z,14.83
2023-04-07T08:44:17.511Z,14.32
2023-04-07T08:45:17.489Z,13.45
2023-04-07T08:46:17.517Z,13.10
2023-04-07T08:47:17.480Z,13.26
2023-04-07T08:48:17.485Z,13.46
2023-04-07T08:49:17.471Z,13.51
2023-04-07T08:50:17.454Z,13.73
2023-04-07T08:51:17.418Z,13.91
2023-04-07T08:52:22.487Z,13.99
2023-04-07T08:53:17.398Z,13.75
2023-04-07T08:54:17.395Z,13.87
2023-04-07T08:55:17.599Z,14.02
2023-04-07T08:56:17.367Z,14.04
2023-04-07T08:57:17.350Z,13.96
2023-04-07T08:58:17.356Z,13.77
2023-04-07T08:59:17.354Z,13.32
2023-04-07T09:00:17.322Z,13.12
2023-04-07T09:01:17.444Z,13.03
2023-04-07T09:02:17.362Z,13.12
2023-04-07T09:03:22.443Z,13.19
2023-04-07T09:04:17.335Z,13.26
2023-04-07T09:05:17.275Z,13.44
2023-04-07T09:06:17.271Z,13.46
2023-04-07T09:07:17.264Z,13.42
2023-04-07T09:08:17.229Z,13.22
2023-04-07T09:09:17.227Z,12.89
2023-04-07T09:10:17.204Z,12.70
2023-04-07T09:11:17.202Z,12.71
2023-04-07T09:12:17.185Z,12.83
2023-04-07T09:13:17.195Z,13.07
2023-04-07T09:14:22.211Z,13.20
2023-04-07T09:15:17.163Z,13.46
2023-04-07T09:16:17.174Z,13.60
2023-04-07T09:17:17.159Z,13.71
2023-04-07T09:18:17.109Z,13.96
2023-04-07T09:19:17.118Z,13.97
2023-04-07T09:20:17.141Z,13.97
2023-04-07T09:21:17.097Z,14.03
2023-04-07T09:22:17.084Z,14.18
2023-04-07T09:23:17.079Z,14.29
2023-04-07T09:24:17.053Z,14.51
2023-04-07T09:25:22.057Z,14.39
2023-04-07T09:26:17.029Z,14.24
2023-04-07T09:27:17.498Z,14.07
2023-04-07T09:28:17.019Z,14.04
2023-04-07T09:29:17.012Z,13.96
2023-04-07T09:30:16.974Z,13.95
2023-04-07T09:31:16.974Z,14.17
2023-04-07T09:32:16.949Z,14.28
2023-04-07T09:33:16.958Z,14.51
2023-04-07T09:34:16.967Z,14.65
2023-04-07T09:35:16.943Z,14.84
2023-04-07T09:36:21.948Z,14.83
2023-04-07T09:37:16.904Z,14.80
2023-04-07T09:38:16.887Z,15.03
2023-04-07T09:39:16.890Z,15.17
2023-04-07T09:40:16.907Z,15.14
2023-04-07T09:41:16.976Z,15.10
2023-04-07T09:42:16.865Z,14.99
2023-04-07T09:43:16.839Z,14.91
2023-04-07T09:44:16.832Z,14.69
2023-04-07T09:45:30.881Z,14.69
2023-04-07T09:46:16.838Z,14.46
2023-04-07T09:47:21.827Z,14.24
2023-04-07T09:48:16.775Z,14.17
2023-04-07T09:49:16.774Z,14.02
2023-04-07T09:50:16.746Z,13.70
2023-04-07T09:51:16.738Z,13.81
2023-04-07T09:52:16.745Z,13.82
2023-04-07T09:53:16.722Z,13.77
2023-04-07T09:54:16.716Z,13.81
2023-04-07T09:55:16.696Z,13.71
2023-04-07T09:56:16.679Z,13.67
2023-04-07T09:57:16.675Z,13.55
2023-04-07T09:58:21.710Z,13.55
2023-04-07T09:59:16.658Z,13.36
2023-04-07T10:00:16.648Z,13.38
2023-04-07T10:01:16.731Z,13.25
2023-04-07T10:02:16.783Z,13.07
2023-04-07T10:03:16.662Z,13.14
2023-04-07T10:04:16.711Z,13.12
2023-04-07T10:05:16.580Z,12.93
2023-04-07T10:06:16.711Z,12.93
2023-04-07T10:07:16.579Z,12.89
2023-04-07T10:08:16.567Z,12.87
2023-04-07T10:09:21.568Z,12.90
2023-04-07T10:10:16.581Z,12.87
2023-04-07T10:11:16.527Z,12.86
2023-04-07T10:12:16.512Z,12.90
2023-04-07T10:13:16.491Z,12.77
2023-04-07T10:14:16.530Z,12.59
2023-04-07T10:15:16.486Z,12.57
2023-04-07T10:16:16.528Z,12.59
2023-04-07T10:17:16.461Z,12.64
2023-04-07T10:18:16.431Z,12.67
2023-04-07T10:19:16.436Z,12.68
2023-04-07T10:20:21.523Z,12.65
2023-04-07T10:21:16.403Z,12.67
2023-04-07T10:22:16.421Z,12.70
2023-04-07T10:23:16.384Z,12.72
2023-04-07T10:24:16.408Z,12.90
2023-04-07T10:25:16.360Z,13.11
2023-04-07T10:26:16.346Z,13.41
2023-04-07T10:27:16.334Z,13.49
2023-04-07T10:28:16.352Z,13.54
2023-04-07T10:29:16.319Z,13.52
2023-04-07T10:30:16.309Z,13.52
2023-04-07T10:31:21.338Z,13.79
2023-04-07T10:32:16.286Z,14.02
2023-04-07T10:33:16.284Z,14.07
2023-04-07T10:34:16.271Z,14.17
2023-04-07T10:35:16.293Z,14.32
2023-04-07T10:36:16.235Z,14.42
2023-04-07T10:37:16.222Z,14.55
2023-04-07T10:38:16.260Z,14.39
2023-04-07T10:39:16.245Z,14.33
2023-04-07T10:40:16.214Z,14.43
2023-04-07T10:41:16.180Z,14.46
2023-04-07T10:42:21.194Z,14.51
2023-04-07T10:43:16.152Z,14.60
2023-04-07T10:44:16.155Z,14.72
2023-04-07T10:45:16.132Z,14.69
2023-04-07T10:46:16.140Z,14.70
2023-04-07T10:47:16.120Z,14.72
2023-04-07T10:48:16.132Z,14.72
2023-04-07T10:49:18.432Z,14.92
2023-04-07T10:50:16.102Z,15.28
2023-04-07T10:51:16.068Z,15.50
2023-04-07T10:52:16.053Z,15.53
2023-04-07T10:53:21.074Z,15.59
2023-04-07T10:54:16.069Z,15.68
2023-04-07T10:55:16.023Z,15.54
2023-04-07T10:56:16.024Z,15.56
2023-04-07T10:57:16.007Z,15.59
2023-04-07T10:58:15.984Z,15.23
2023-04-07T10:59:15.988Z,15.17
2023-04-07T11:00:16.008Z,14.86
2023-04-07T11:01:16.009Z,14.58
2023-04-07T11:02:16.026Z,14.17
2023-04-07T11:03:16.145Z,14.03
2023-04-07T11:04:21.110Z,13.85
2023-04-07T11:05:15.906Z,13.77
2023-04-07T11:06:15.927Z,13.95
2023-04-07T11:07:15.882Z,13.95
2023-04-07T11:08:15.868Z,13.99
2023-04-07T11:09:15.858Z,13.96
2023-04-07T11:10:15.970Z,13.77
2023-04-07T11:11:15.858Z,13.81
2023-04-07T11:12:15.847Z,13.73
2023-04-07T11:13:15.815Z,13.95
2023-04-07T11:14:15.801Z,14.21
2023-04-07T11:15:20.837Z,14.32
2023-04-07T11:16:15.850Z,14.45
2023-04-07T11:17:15.808Z,14.60
2023-04-07T11:18:15.758Z,14.95
2023-04-07T11:19:15.756Z,15.35
2023-04-07T11:20:15.774Z,15.59
2023-04-07T11:21:15.721Z,15.78
2023-04-07T11:22:28.549Z,15.65
2023-04-07T11:23:15.733Z,15.56
2023-04-07T11:24:15.685Z,15.28
2023-04-07T11:25:15.733Z,15.10
2023-04-07T11:26:20.688Z,14.98
2023-04-07T11:27:15.665Z,15.07
2023-04-07T11:28:15.675Z,15.10
2023-04-07T11:29:15.645Z,15.03
2023-04-07T11:30:15.682Z,14.99
2023-04-07T11:31:15.641Z,15.31
2023-04-07T11:32:15.599Z,15.19
2023-04-07T11:33:15.588Z,15.28
2023-04-07T11:34:15.571Z,15.19
2023-04-07T11:35:15.586Z,15.16
2023-04-07T11:36:15.593Z,14.99
2023-04-07T11:37:20.574Z,15.17
2023-04-07T11:38:15.534Z,15.27
2023-04-07T11:39:15.524Z,15.10
2023-04-07T11:40:15.515Z,15.01
2023-04-07T11:41:15.513Z,15.20
2023-04-07T11:42:15.484Z,15.28
2023-04-07T11:43:15.481Z,15.60
2023-04-07T11:44:15.497Z,15.78
2023-04-07T11:45:15.484Z,15.53
2023-04-07T11:46:15.492Z,15.27
2023-04-07T11:47:15.469Z,15.02
2023-04-07T11:48:20.441Z,14.86
2023-04-07T11:49:15.408Z,14.72
2023-04-07T11:50:15.431Z,14.60
2023-04-07T11:51:15.388Z,14.42
2023-04-07T11:52:15.369Z,14.20
2023-04-07T11:53:15.443Z,14.20
2023-04-07T11:54:15.346Z,14.07
2023-04-07T11:55:15.346Z,14.15
2023-04-07T11:56:15.377Z,14.22
2023-04-07T11:57:15.314Z,14.17
2023-04-07T11:58:15.303Z,14.12
2023-04-07T11:59:20.378Z,14.02
2023-04-07T12:00:15.375Z,13.88
2023-04-07T12:01:15.286Z,13.81
2023-04-07T12:02:15.345Z,13.64
2023-04-07T12:03:15.513Z,13.64
2023-04-07T12:04:15.356Z,13.60
2023-04-07T12:05:15.320Z,13.62
2023-04-07T12:06:15.244Z,13.55
2023-04-07T12:07:15.206Z,13.38
2023-04-07T12:08:15.190Z,13.44
2023-04-07T12:09:15.181Z,13.28
2023-04-07T12:10:20.206Z,13.29
2023-04-07T12:11:15.186Z,13.20
2023-04-07T12:12:15.146Z,13.28
2023-04-07T12:13:15.133Z,13.14
2023-04-07T12:14:15.123Z,13.23
2023-04-07T12:15:15.135Z,13.14
2023-04-07T12:16:15.128Z,13.20
2023-04-07T12:17:15.115Z,13.17
2023-04-07T12:18:15.078Z,13.19
2023-04-07T12:19:15.066Z,13.03
2023-04-07T12:20:15.061Z,12.90
2023-04-07T12:21:20.081Z,12.82
2023-04-07T12:22:15.031Z,12.78
2023-04-07T12:23:15.030Z,12.79
2023-04-07T12:24:15.015Z,12.87
2023-04-07T12:25:15.012Z,12.75
2023-04-07T12:26:14.992Z,12.64
2023-04-07T12:27:14.976Z,12.67
2023-04-07T12:28:14.969Z,12.67
2023-04-07T12:29:14.980Z,12.74
2023-04-07T12:30:14.952Z,12.75
2023-04-07T12:31:14.960Z,12.70
2023-04-07T12:32:19.969Z,12.70
2023-04-07T12:33:14.911Z,12.70
2023-04-07T12:34:14.895Z,12.65
2023-04-07T12:35:14.923Z,12.57
2023-04-07T12:36:14.883Z,12.57
2023-04-07T12:37:14.863Z,12.46
2023-04-07T12:38:14.850Z,12.52
2023-04-07T12:39:14.842Z,12.46
2023-04-07T12:40:14.826Z,12.57
2023-04-07T12:41:14.840Z,12.57
2023-04-07T12:42:14.807Z,12.53
2023-04-07T12:43:19.819Z,12.64
2023-04-07T12:44:14.786Z,12.60
2023-04-07T12:45:14.775Z,12.62
2023-04-07T12:46:14.818Z,12.65
2023-04-07T12:47:14.795Z,12.79
2023-04-07T12:48:14.742Z,13.07
2023-04-07T12:49:14.726Z,13.28
2023-04-07T12:50:14.717Z,13.49
2023-04-07T12:51:14.715Z,13.54
2023-04-07T12:52:14.692Z,13.51
2023-04-07T12:53:14.701Z,13.48
2023-04-07T12:54:19.701Z,13.57
2023-04-07T12:55:14.673Z,13.81
2023-04-07T12:56:14.685Z,13.77
2023-04-07T12:57:14.638Z,13.75
2023-04-07T12:58:14.626Z,13.75
2023-04-07T12:59:14.630Z,13.85
2023-04-07T13:00:14.618Z,13.97
2023-04-07T13:01:14.632Z,14.00
2023-04-07T13:02:14.924Z,13.96
2023-04-07T13:03:14.734Z,13.75
2023-04-07T13:04:14.698Z,13.82
2023-04-07T13:05:19.659Z,13.70
2023-04-07T13:06:14.546Z,13.63